Time;durP1;ratioP1;P1;durP2;ratioP2;P2;SDS_P1;SDS_P2;PMS_P1;PMS_P2;Temp;Humidity;BMP_temperature;BMP_pressure;BME280_temperature;BME280_humidity;BME280_pressure;Samples;Min_cycle;Max_cycle;Signal;HPM_P1;HPM_P2
2022/03/26 00:01:09;;;;;;;16.00;10.10;;;11.90;41.70;;;;;;5068853;28;20452;-69
2022/03/26 00:03:37;;;;;;;24.67;11.50;;;11.70;41.10;;;;;;5069390;28;20952;-69
2022/03/26 00:06:07;;;;;;;17.80;11.67;;;11.70;41.20;;;;;;5069330;28;20484;-70
2022/03/26 00:08:34;;;;;;;20.47;12.30;;;11.70;41.40;;;;;;5068857;28;20504;-69
2022/03/26 00:11:01;;;;;;;16.70;10.97;;;11.70;41.50;;;;;;5068766;28;20965;-69
2022/03/26 00:13:28;;;;;;;23.47;12.30;;;11.60;41.60;;;;;;5069838;28;20452;-70
2022/03/26 00:15:55;;;;;;;18.23;12.10;;;11.40;42.20;;;;;;5073262;28;20825;-68
2022/03/26 00:18:22;;;;;;;20.57;11.73;;;11.20;42.60;;;;;;5073285;28;20472;-68
2022/03/26 00:20:51;;;;;;;15.27;11.50;;;11.20;42.50;;;;;;5073228;28;20926;-69
2022/03/26 00:23:18;;;;;;;18.20;12.20;;;11.20;42.40;;;;;;5072566;28;20494;-68
2022/03/26 00:25:45;;;;;;;15.43;10.30;;;11.30;42.40;;;;;;5072830;28;20540;-68
2022/03/26 00:28:12;;;;;;;19.60;11.90;;;11.40;42.00;;;;;;5072753;28;20479;-68
2022/03/26 00:30:40;;;;;;;17.90;10.57;;;11.40;41.70;;;;;;5072856;28;20452;-68
2022/03/26 00:33:07;;;;;;;16.17;9.73;;;11.30;41.70;;;;;;5072880;28;20789;-68
2022/03/26 00:35:34;;;;;;;19.30;10.03;;;11.10;41.80;;;;;;5072565;28;20539;-68
2022/03/26 00:38:02;;;;;;;15.10;11.13;;;10.90;41.90;;;;;;5072664;28;20445;-68
2022/03/26 00:40:30;;;;;;;30.60;12.03;;;10.90;41.90;;;;;;5072720;28;20451;-69
2022/03/26 00:42:58;;;;;;;13.57;9.97;;;10.90;42.50;;;;;;5072719;28;20489;-68
2022/03/26 00:45:26;;;;;;;17.97;12.70;;;11.00;41.70;;;;;;5072615;28;20512;-69
2022/03/26 00:47:53;;;;;;;18.10;11.50;;;11.00;41.80;;;;;;5072425;28;20510;-68
2022/03/26 00:50:20;;;;;;;15.10;10.70;;;11.00;41.70;;;;;;5072234;28;20788;-69
2022/03/26 00:52:47;;;;;;;17.83;11.13;;;11.00;41.70;;;;;;5072466;28;20445;-69
2022/03/26 00:55:16;;;;;;;21.90;10.60;;;11.10;41.40;;;;;;5072478;28;20469;-69
2022/03/26 00:57:43;;;;;;;19.00;10.10;;;11.20;41.00;;;;;;5072474;28;20510;-69
2022/03/26 01:00:12;;;;;;;16.30;10.80;;;11.10;41.30;;;;;;5072425;28;20463;-69
2022/03/26 01:02:39;;;;;;;19.87;11.10;;;11.10;41.30;;;;;;5071861;28;20995;-70
2022/03/26 01:05:06;;;;;;;15.10;11.47;;;11.00;41.80;;;;;;5072179;28;20472;-68
2022/03/26 01:07:34;;;;;;;17.10;11.77;;;10.90;42.20;;;;;;5072002;28;20994;-68
2022/03/26 01:10:01;;;;;;;18.70;12.27;;;10.90;42.50;;;;;;5072373;28;20912;-68
2022/03/26 01:12:30;;;;;;;22.00;10.83;;;10.80;43.00;;;;;;5071518;28;20552;-68
2022/03/26 01:14:57;;;;;;;18.50;11.70;;;10.70;43.20;;;;;;5072037;28;20557;-68
2022/03/26 01:17:24;;;;;;;15.13;10.47;;;10.40;43.90;;;;;;5071809;28;20464;-69
2022/03/26 01:19:52;;;;;;;25.30;11.80;;;10.00;44.40;;;;;;5072107;28;20449;-68
2022/03/26 01:22:19;;;;;;;17.67;12.50;;;10.00;44.80;;;;;;5071724;28;20572;-70
2022/03/26 01:24:46;;;;;;;17.10;11.30;;;10.20;44.60;;;;;;5071201;28;20477;-68
2022/03/26 01:27:13;;;;;;;17.53;10.87;;;10.40;44.00;;;;;;5071112;28;20481;-69
2022/03/26 01:29:41;;;;;;;26.33;14.73;;;10.50;43.90;;;;;;5071733;28;20457;-68
2022/03/26 01:32:09;;;;;;;22.50;11.23;;;10.60;43.60;;;;;;5071261;28;20449;-68
2022/03/26 01:34:37;;;;;;;17.17;10.80;;;10.70;43.30;;;;;;5071639;28;20469;-68
2022/03/26 01:37:05;;;;;;;20.00;11.53;;;10.70;43.50;;;;;;5071644;28;20464;-68
2022/03/26 01:39:32;;;;;;;20.33;11.93;;;10.60;43.70;;;;;;5071678;28;20453;-68
2022/03/26 01:42:02;;;;;;;22.50;12.57;;;10.60;43.80;;;;;;5071605;28;20464;-68
2022/03/26 01:44:29;;;;;;;20.90;13.33;;;10.70;43.90;;;;;;5071542;28;20504;-69
2022/03/26 01:46:59;;;;;;;16.17;11.47;;;10.30;44.20;;;;;;5071288;28;20456;-68
2022/03/26 01:49:27;;;;;;;18.27;11.73;;;10.30;44.20;;;;;;5071369;28;20457;-69
2022/03/26 01:51:54;;;;;;;20.57;11.90;;;10.50;43.80;;;;;;5071571;28;20916;-69
2022/03/26 01:54:22;;;;;;;16.50;11.00;;;10.50;43.70;;;;;;5071400;28;20469;-69
2022/03/26 01:56:50;;;;;;;20.17;12.13;;;10.50;43.70;;;;;;5071112;28;20813;-68
2022/03/26 01:59:19;;;;;;;21.27;10.50;;;10.50;43.60;;;;;;5071149;28;20502;-69
2022/03/26 02:01:46;;;;;;;18.00;11.60;;;10.50;44.20;;;;;;5071221;28;20598;-68
2022/03/26 02:04:14;;;;;;;15.43;11.23;;;10.20;45.00;;;;;;5071296;28;20464;-69
2022/03/26 02:06:42;;;;;;;18.63;11.93;;;10.20;45.30;;;;;;5071084;28;20456;-68
2022/03/26 02:09:13;;;;;;;24.17;11.97;;;10.30;45.30;;;;;;5070496;28;20521;-69
2022/03/26 02:11:44;;;;;;;22.17;15.33;;;10.00;45.40;;;;;;5070871;28;20789;-67
2022/03/26 02:14:12;;;;;;;34.40;20.93;;;9.90;46.40;;;;;;5070843;28;20531;-69
2022/03/26 02:16:41;;;;;;;20.17;12.30;;;9.90;46.40;;;;;;5070896;28;21002;-68
2022/03/26 02:19:09;;;;;;;25.50;12.20;;;9.90;46.50;;;;;;5070445;28;20540;-68
2022/03/26 02:21:38;;;;;;;15.20;12.00;;;9.70;46.90;;;;;;5070880;28;20811;-68
2022/03/26 02:24:08;;;;;;;16.30;10.70;;;9.70;47.10;;;;;;5070386;28;20496;-69
2022/03/26 02:26:36;;;;;;;17.27;11.30;;;9.60;47.30;;;;;;5070222;28;21011;-68
2022/03/26 02:29:08;;;;;;;23.67;11.80;;;9.50;47.70;;;;;;5070738;28;20537;-68
2022/03/26 02:31:35;;;;;;;19.53;12.10;;;9.50;47.80;;;;;;5070633;28;20459;-69
2022/03/26 02:34:02;;;;;;;20.57;12.53;;;9.50;47.90;;;;;;5070277;28;20807;-69
2022/03/26 02:36:29;;;;;;;20.50;10.77;;;9.40;47.90;;;;;;5070238;28;20448;-68
2022/03/26 02:38:58;;;;;;;17.63;10.50;;;9.30;47.80;;;;;;5070482;28;20791;-68
2022/03/26 02:41:25;;;;;;;17.03;12.43;;;9.30;48.00;;;;;;5070249;28;20453;-68
2022/03/26 02:43:52;;;;;;;20.33;11.23;;;9.50;47.80;;;;;;5070266;28;20541;-68
2022/03/26 02:46:19;;;;;;;18.63;11.50;;;9.60;47.20;;;;;;5070416;28;20460;-69
2022/03/26 02:48:46;;;;;;;24.10;13.10;;;9.60;46.80;;;;;;5070361;28;20461;-69
2022/03/26 02:51:13;;;;;;;20.20;12.43;;;9.70;46.40;;;;;;5070064;28;20852;-68
2022/03/26 02:53:40;;;;;;;20.57;12.53;;;9.80;46.00;;;;;;5070037;28;20448;-68
2022/03/26 02:56:09;;;;;;;20.13;13.00;;;9.70;46.00;;;;;;5069969;28;20449;-68
2022/03/26 02:58:36;;;;;;;18.47;12.73;;;9.50;46.50;;;;;;5070161;28;20484;-68
2022/03/26 03:01:03;;;;;;;24.47;12.20;;;9.40;46.80;;;;;;5070092;28;20461;-69
2022/03/26 03:03:30;;;;;;;20.37;13.40;;;9.40;47.00;;;;;;5069816;28;20832;-69
2022/03/26 03:05:58;;;;;;;28.50;13.60;;;9.30;47.10;;;;;;5069668;28;20839;-69
2022/03/26 03:08:25;;;;;;;30.10;13.20;;;8.90;47.60;;;;;;5070087;28;20444;-69
2022/03/26 03:10:53;;;;;;;20.50;12.80;;;8.50;48.10;;;;;;5070055;28;20455;-69
2022/03/26 03:13:22;;;;;;;19.97;12.63;;;8.20;49.10;;;;;;5069989;28;21170;-70
2022/03/26 03:15:49;;;;;;;22.87;11.80;;;8.00;49.80;;;;;;5069905;28;20445;-70
2022/03/26 03:18:17;;;;;;;17.03;13.10;;;8.20;50.00;;;;;;5069730;28;20529;-69
2022/03/26 03:20:44;;;;;;;20.77;12.60;;;8.50;49.10;;;;;;5069537;28;20449;-69
2022/03/26 03:23:11;;;;;;;22.50;12.97;;;8.80;48.50;;;;;;5069203;28;20570;-68
2022/03/26 03:25:39;;;;;;;16.57;11.70;;;8.80;48.30;;;;;;5069221;28;20484;-68
2022/03/26 03:28:06;;;;;;;26.03;13.60;;;8.80;48.50;;;;;;5069610;28;20523;-68
2022/03/26 03:30:35;;;;;;;24.40;16.10;;;8.60;49.10;;;;;;5069698;28;20961;-68
2022/03/26 03:33:02;;;;;;;23.87;16.77;;;8.70;49.40;;;;;;5069435;28;20455;-68
2022/03/26 03:35:29;;;;;;;28.90;16.63;;;8.50;49.90;;;;;;5069365;28;20473;-68
2022/03/26 03:37:56;;;;;;;30.00;17.80;;;8.50;50.20;;;;;;5069672;28;20453;-68
2022/03/26 03:40:24;;;;;;;24.40;15.17;;;8.60;50.60;;;;;;5069573;28;20453;-72
2022/03/26 03:42:53;;;;;;;20.47;14.63;;;8.60;50.60;;;;;;5069507;28;20489;-68
2022/03/26 03:45:20;;;;;;;28.07;15.87;;;8.50;51.10;;;;;;5069267;28;20572;-69
2022/03/26 03:47:48;;;;;;;21.87;15.33;;;8.50;51.20;;;;;;5069269;28;20460;-69
2022/03/26 03:50:16;;;;;;;27.77;17.13;;;8.60;50.90;;;;;;5069096;28;20461;-69
2022/03/26 03:52:43;;;;;;;28.07;15.87;;;8.70;50.80;;;;;;5069582;28;20540;-69
2022/03/26 03:55:10;;;;;;;28.00;20.07;;;8.50;51.40;;;;;;5069382;28;20472;-69
2022/03/26 03:57:41;;;;;;;31.63;18.60;;;8.40;51.80;;;;;;5069493;28;20954;-70
2022/03/26 04:00:10;;;;;;;33.07;19.13;;;8.50;51.60;;;;;;5069106;28;20445;-69
2022/03/26 04:02:37;;;;;;;32.13;19.30;;;8.50;51.60;;;;;;5069065;28;20452;-69
2022/03/26 04:05:09;;;;;;;27.93;19.80;;;8.50;51.70;;;;;;5069235;28;20508;-68
2022/03/26 04:07:36;;;;;;;34.03;19.13;;;8.60;51.50;;;;;;5069414;28;20457;-69
2022/03/26 04:10:04;;;;;;;25.33;18.10;;;8.60;51.50;;;;;;5069359;28;20918;-69
2022/03/26 04:12:31;;;;;;;26.40;19.70;;;8.60;51.50;;;;;;5069201;28;20457;-69
2022/03/26 04:14:59;;;;;;;29.37;20.63;;;8.60;51.50;;;;;;5069263;28;20460;-70
2022/03/26 04:17:26;;;;;;;32.53;23.00;;;8.60;51.40;;;;;;5069172;28;20534;-70
2022/03/26 04:19:53;;;;;;;31.30;19.10;;;8.60;51.50;;;;;;5069328;28;20457;-70
2022/03/26 04:22:22;;;;;;;33.30;19.83;;;8.60;51.40;;;;;;5069194;28;20514;-68
2022/03/26 04:24:49;;;;;;;28.80;20.40;;;8.70;51.30;;;;;;5069044;28;20492;-68
2022/03/26 04:27:16;;;;;;;30.37;19.33;;;8.70;51.00;;;;;;5068661;28;20493;-70
2022/03/26 04:29:43;;;;;;;30.13;17.67;;;8.60;51.00;;;;;;5068902;28;20930;-70
2022/03/26 04:32:10;;;;;;;30.60;18.63;;;8.60;51.30;;;;;;5068848;28;20453;-70
2022/03/26 04:34:38;;;;;;;25.57;16.50;;;8.30;52.00;;;;;;5068906;28;20532;-70
2022/03/26 04:37:06;;;;;;;26.37;17.67;;;7.70;53.00;;;;;;5068746;28;20454;-70
2022/03/26 04:39:35;;;;;;;23.63;18.83;;;7.50;54.20;;;;;;5068651;28;20493;-69
2022/03/26 04:42:02;;;;;;;28.53;16.60;;;7.20;55.10;;;;;;5068534;28;20453;-69
2022/03/26 04:44:29;;;;;;;30.17;18.60;;;7.40;55.10;;;;;;5068504;28;20856;-69
2022/03/26 04:46:57;;;;;;;24.43;16.80;;;7.70;55.00;;;;;;5068665;28;20803;-69
2022/03/26 04:49:24;;;;;;;31.80;18.33;;;7.90;54.20;;;;;;5068651;28;20536;-70
2022/03/26 04:51:51;;;;;;;31.10;18.57;;;8.00;54.40;;;;;;5068762;28;20475;-69
2022/03/26 04:54:19;;;;;;;24.80;17.13;;;7.80;55.00;;;;;;5068418;28;20447;-69
2022/03/26 04:56:47;;;;;;;32.53;19.13;;;7.60;55.40;;;;;;5068822;28;20930;-69
2022/03/26 04:59:14;;;;;;;28.63;18.40;;;7.20;56.20;;;;;;5068140;28;20476;-68
2022/03/26 05:01:44;;;;;;;28.13;17.93;;;7.30;57.20;;;;;;5071108;28;20460;-70
2022/03/26 05:04:11;;;;;;;25.80;16.87;;;7.50;57.30;;;;;;5072206;28;20489;-69
2022/03/26 05:06:38;;;;;;;30.10;17.00;;;7.20;57.10;;;;;;5071780;28;20457;-70
2022/03/26 05:09:05;;;;;;;30.47;17.03;;;7.10;58.50;;;;;;5071744;28;20477;-70
2022/03/26 05:11:32;;;;;;;27.40;16.50;;;7.10;59.10;;;;;;5072145;28;20455;-70
2022/03/26 05:14:01;;;;;;;28.13;16.03;;;7.10;58.90;;;;;;5072029;28;20456;-70
2022/03/26 05:16:28;;;;;;;36.10;17.70;;;7.20;59.10;;;;;;5072163;28;20457;-69
2022/03/26 05:18:55;;;;;;;28.03;16.10;;;7.60;58.10;;;;;;5071593;28;20469;-69
2022/03/26 05:21:22;;;;;;;26.93;16.97;;;7.60;58.10;;;;;;5071830;28;20485;-69
2022/03/26 05:23:50;;;;;;;25.83;16.40;;;7.80;57.90;;;;;;5071317;28;20495;-69
2022/03/26 05:26:18;;;;;;;24.00;17.00;;;7.70;57.60;;;;;;5071506;28;20492;-69
2022/03/26 05:28:46;;;;;;;22.40;17.13;;;7.70;58.30;;;;;;5071841;28;20477;-69
2022/03/26 05:31:14;;;;;;;31.00;18.10;;;7.90;57.60;;;;;;5071849;28;20921;-69
2022/03/26 05:33:41;;;;;;;29.63;17.40;;;8.00;57.40;;;;;;5071617;28;20445;-69
2022/03/26 05:36:08;;;;;;;31.73;17.10;;;7.80;57.70;;;;;;5071498;28;20460;-69
2022/03/26 05:38:36;;;;;;;27.43;18.30;;;7.90;57.80;;;;;;5071381;28;20465;-69
2022/03/26 05:41:03;;;;;;;28.07;17.90;;;7.60;58.20;;;;;;5071572;28;20449;-69
2022/03/26 05:43:30;;;;;;;31.63;19.03;;;7.70;58.70;;;;;;5071482;28;20488;-69
2022/03/26 05:45:57;;;;;;;29.13;16.90;;;7.90;58.40;;;;;;5071486;28;20457;-70
2022/03/26 05:48:26;;;;;;;28.93;17.87;;;8.20;57.50;;;;;;5071155;28;20473;-70
2022/03/26 05:50:53;;;;;;;29.43;19.50;;;8.20;57.40;;;;;;5071456;28;20506;-69
2022/03/26 05:53:20;;;;;;;32.07;19.07;;;8.30;57.10;;;;;;5071320;28;20461;-69
2022/03/26 05:55:47;;;;;;;34.30;17.70;;;8.40;57.20;;;;;;5070840;28;20456;-69
2022/03/26 05:58:15;;;;;;;27.10;17.77;;;8.50;56.90;;;;;;5071081;28;20465;-69
2022/03/26 06:00:42;;;;;;;30.50;20.23;;;8.60;57.00;;;;;;5071224;28;20442;-69
2022/03/26 06:03:09;;;;;;;28.87;19.37;;;8.60;57.10;;;;;;5070830;28;20485;-70
2022/03/26 06:05:38;;;;;;;27.87;19.43;;;8.90;56.20;;;;;;5071027;28;20956;-70
2022/03/26 06:08:06;;;;;;;34.50;20.17;;;9.20;55.60;;;;;;5070945;28;20983;-70
2022/03/26 06:10:35;;;;;;;34.07;19.40;;;9.40;55.10;;;;;;5071011;28;20764;-70
2022/03/26 06:13:02;;;;;;;27.07;19.03;;;9.60;54.60;;;;;;5070512;28;20508;-67
2022/03/26 06:15:29;;;;;;;32.17;17.90;;;9.70;53.90;;;;;;5070831;28;20465;-69
2022/03/26 06:17:56;;;;;;;34.23;19.63;;;9.80;53.90;;;;;;5070567;28;20469;-69
2022/03/26 06:20:24;;;;;;;30.70;19.03;;;9.80;54.00;;;;;;5070557;28;20456;-69
2022/03/26 06:22:52;;;;;;;28.07;17.60;;;10.00;52.90;;;;;;5070443;28;20832;-68
2022/03/26 06:25:20;;;;;;;23.83;17.77;;;10.10;53.00;;;;;;5070061;28;20500;-69
2022/03/26 06:27:48;;;;;;;30.33;18.73;;;10.20;53.10;;;;;;5070392;28;20489;-68
2022/03/26 06:30:15;;;;;;;28.43;19.43;;;10.30;52.40;;;;;;5070626;28;20449;-67
2022/03/26 06:32:42;;;;;;;27.77;18.57;;;10.40;51.70;;;;;;5070444;28;20464;-69
2022/03/26 06:35:10;;;;;;;27.20;19.07;;;10.60;51.30;;;;;;5070555;28;20449;-67
2022/03/26 06:37:37;;;;;;;26.60;18.03;;;10.80;50.90;;;;;;5070404;28;20473;-69
2022/03/26 06:40:07;;;;;;;24.87;20.33;;;10.80;50.80;;;;;;5070613;28;20460;-68
2022/03/26 06:42:34;;;;;;;28.10;19.80;;;10.90;50.90;;;;;;5070271;28;20471;-68
2022/03/26 06:45:01;;;;;;;26.00;19.07;;;11.00;51.00;;;;;;5070118;28;20489;-69
2022/03/26 06:47:30;;;;;;;25.67;19.03;;;11.10;50.30;;;;;;5069426;28;20989;-69
2022/03/26 06:49:57;;;;;;;30.20;19.27;;;11.20;50.60;;;;;;5070198;28;20518;-68
2022/03/26 06:52:25;;;;;;;24.70;17.60;;;11.40;50.40;;;;;;5069884;28;20923;-69
2022/03/26 06:54:53;;;;;;;20.57;17.73;;;11.70;49.80;;;;;;5070024;28;20551;-76
2022/03/26 06:57:21;;;;;;;30.87;19.47;;;11.90;49.40;;;;;;5069786;28;20472;-75
2022/03/26 06:59:49;;;;;;;32.20;19.00;;;12.10;49.00;;;;;;5069878;28;20468;-75
2022/03/26 07:02:16;;;;;;;24.70;18.73;;;12.20;48.70;;;;;;5070019;28;20790;-78
2022/03/26 07:04:43;;;;;;;22.67;18.67;;;12.20;48.60;;;;;;5070011;28;20485;-76
2022/03/26 07:07:13;;;;;;;28.33;16.93;;;12.40;47.80;;;;;;5070047;28;20453;-77
2022/03/26 07:09:41;;;;;;;19.27;16.23;;;12.50;47.90;;;;;;5069835;28;20538;-79
2022/03/26 07:12:09;;;;;;;26.40;17.33;;;12.40;48.30;;;;;;5070004;28;20582;-73
2022/03/26 07:14:37;;;;;;;24.07;16.73;;;12.40;48.30;;;;;;5069389;28;20460;-75
2022/03/26 07:17:08;;;;;;;23.30;16.90;;;12.50;48.80;;;;;;5069777;28;20468;-76
2022/03/26 07:19:35;;;;;;;22.80;17.47;;;12.70;48.60;;;;;;5069979;28;20465;-70
2022/03/26 07:22:02;;;;;;;23.90;17.20;;;12.80;47.70;;;;;;5069493;28;20457;-74
2022/03/26 07:24:29;;;;;;;23.00;17.00;;;13.00;47.80;;;;;;5068404;28;20849;-72
2022/03/26 07:26:56;;;;;;;30.50;16.03;;;13.30;46.80;;;;;;5069051;28;20547;-75
2022/03/26 07:29:23;;;;;;;27.33;17.27;;;13.50;46.30;;;;;;5069498;28;20456;-72
2022/03/26 07:31:52;;;;;;;24.63;16.77;;;13.50;46.10;;;;;;5069809;28;20456;-76
2022/03/26 07:34:20;;;;;;;30.70;18.33;;;13.50;46.10;;;;;;5069652;28;20489;-73
2022/03/26 07:36:47;;;;;;;26.83;17.70;;;13.60;45.70;;;;;;5069645;28;20554;-74
2022/03/26 07:39:15;;;;;;;20.87;16.93;;;13.70;46.00;;;;;;5069173;28;20465;-72
2022/03/26 07:41:42;;;;;;;24.17;16.73;;;14.00;45.70;;;;;;5069363;28;20953;-73
2022/03/26 07:44:09;;;;;;;24.63;17.30;;;13.90;45.40;;;;;;5069745;28;20515;-71
2022/03/26 07:46:36;;;;;;;29.10;17.50;;;13.80;45.00;;;;;;5069596;28;20445;-70
2022/03/26 07:49:06;;;;;;;20.70;17.07;;;13.80;44.80;;;;;;5069529;28;20477;-70
2022/03/26 07:51:33;;;;;;;23.53;17.00;;;13.80;44.50;;;;;;5069130;28;20489;-69
2022/03/26 07:54:00;;;;;;;19.07;16.23;;;13.80;44.20;;;;;;5069427;28;20460;-71
2022/03/26 07:56:27;;;;;;;21.90;15.90;;;13.80;44.80;;;;;;5069195;28;20457;-70
2022/03/26 07:58:54;;;;;;;22.93;16.00;;;13.90;45.00;;;;;;5069210;28;21024;-69
2022/03/26 08:01:21;;;;;;;23.33;18.23;;;14.10;44.50;;;;;;5069212;28;20985;-71
2022/03/26 08:03:52;;;;;;;24.73;16.70;;;14.20;44.10;;;;;;5069368;28;20463;-68
2022/03/26 08:06:21;;;;;;;28.27;17.20;;;14.20;43.80;;;;;;5069113;28;20457;-68
2022/03/26 08:08:48;;;;;;;23.03;17.43;;;14.20;43.60;;;;;;5068939;28;20993;-66
2022/03/26 08:11:15;;;;;;;21.17;16.77;;;14.40;44.00;;;;;;5069043;28;20455;-67
2022/03/26 08:13:42;;;;;;;21.60;16.70;;;14.40;43.80;;;;;;5069149;28;20445;-68
2022/03/26 08:16:09;;;;;;;19.47;15.30;;;14.70;43.40;;;;;;5069243;28;20452;-69
2022/03/26 08:18:37;;;;;;;22.20;17.13;;;15.10;43.10;;;;;;5068847;28;20473;-68
2022/03/26 08:21:04;;;;;;;20.90;16.40;;;15.10;42.90;;;;;;5068979;28;20453;-67
2022/03/26 08:23:33;;;;;;;24.77;14.97;;;15.30;42.50;;;;;;5068956;28;20505;-69
2022/03/26 08:28:45;;;;;;;18.83;14.27;;;15.70;41.40;;;;;;5068692;28;20448;-68
2022/03/26 08:31:13;;;;;;;15.83;13.50;;;16.10;39.90;;;;;;5069033;28;20457;-68
2022/03/26 08:33:40;;;;;;;23.43;16.37;;;16.20;39.00;;;;;;5069073;28;20453;-68
2022/03/26 08:36:07;;;;;;;19.47;15.07;;;16.30;37.80;;;;;;5072218;28;20456;-68
2022/03/26 08:38:36;;;;;;;23.33;14.07;;;16.20;36.90;;;;;;5072969;28;20469;-68
2022/03/26 08:41:03;;;;;;;20.93;15.57;;;16.00;38.10;;;;;;5072296;28;20991;-69
2022/03/26 08:43:30;;;;;;;18.93;14.43;;;16.10;38.40;;;;;;5072568;28;20804;-68
2022/03/26 08:45:57;;;;;;;22.40;15.90;;;16.40;38.70;;;;;;5072574;28;20494;-68
2022/03/26 08:48:24;;;;;;;25.90;15.50;;;16.80;38.90;;;;;;5072497;28;20492;-68
2022/03/26 08:50:52;;;;;;;20.40;15.07;;;17.00;38.90;;;;;;5072652;28;20452;-68
2022/03/26 08:53:19;;;;;;;18.93;14.77;;;17.30;38.70;;;;;;5072646;28;20486;-68
2022/03/26 08:55:47;;;;;;;23.77;14.37;;;17.60;38.40;;;;;;5072526;28;20956;-69
2022/03/26 08:58:14;;;;;;;19.30;14.17;;;17.80;37.90;;;;;;5072085;28;20567;-68
2022/03/26 09:00:41;;;;;;;17.07;12.90;;;17.90;37.30;;;;;;5072401;28;20488;-68
2022/03/26 09:03:09;;;;;;;18.53;14.20;;;17.80;36.40;;;;;;5072328;28;20453;-69
2022/03/26 09:05:36;;;;;;;20.10;13.97;;;17.90;36.40;;;;;;5072184;28;20481;-69
2022/03/26 09:08:03;;;;;;;22.60;15.00;;;18.10;35.70;;;;;;5071731;28;20473;-69
2022/03/26 09:10:30;;;;;;;18.70;13.30;;;18.20;35.20;;;;;;5072495;28;20895;-68
2022/03/26 09:12:58;;;;;;;16.17;14.20;;;18.20;35.30;;;;;;5072307;28;20977;-68
2022/03/26 09:15:25;;;;;;;16.33;14.50;;;18.10;35.50;;;;;;5072132;28;20437;-71
2022/03/26 09:17:52;;;;;;;20.33;14.70;;;18.30;35.80;;;;;;5071891;28;20983;-70
2022/03/26 09:20:19;;;;;;;20.07;14.70;;;18.50;35.20;;;;;;5071518;28;20960;-68
2022/03/26 09:22:47;;;;;;;19.13;14.37;;;18.40;35.00;;;;;;5071905;28;20465;-69
2022/03/26 09:25:16;;;;;;;20.80;17.02;;;18.40;35.80;;;;;;5070743;28;20814;-68
2022/03/26 09:27:43;;;;;;;19.50;16.43;;;18.60;35.60;;;;;;5071649;28;20242;-68
2022/03/26 09:30:12;;;;;;;20.80;16.37;;;18.70;35.00;;;;;;5071703;28;20836;-68
2022/03/26 09:32:39;;;;;;;20.83;14.93;;;18.70;35.10;;;;;;5071914;28;20452;-68
2022/03/26 09:35:07;;;;;;;20.80;15.37;;;18.70;35.50;;;;;;5071843;28;20457;-68
2022/03/26 09:37:34;;;;;;;18.17;14.40;;;18.80;34.80;;;;;;5071493;28;20468;-68
2022/03/26 09:40:04;;;;;;;17.00;13.80;;;18.80;34.70;;;;;;5071651;28;20917;-68
2022/03/26 09:42:32;;;;;;;22.87;15.03;;;18.90;35.50;;;;;;5071465;28;20453;-66
2022/03/26 09:44:59;;;;;;;18.70;14.37;;;19.00;35.30;;;;;;5071618;28;20496;-72
2022/03/26 09:47:28;;;;;;;19.50;15.77;;;19.30;35.50;;;;;;5070626;28;20477;-67
2022/03/26 09:49:55;;;;;;;18.17;13.27;;;19.50;35.10;;;;;;5071648;28;20937;-66
2022/03/26 09:52:22;;;;;;;22.13;13.30;;;19.50;35.40;;;;;;5071117;28;20489;-70
2022/03/26 09:54:49;;;;;;;18.30;13.53;;;19.60;35.40;;;;;;5071267;28;20812;-67
2022/03/26 09:57:16;;;;;;;18.77;13.57;;;19.80;35.50;;;;;;5071152;28;20868;-71
2022/03/26 09:59:44;;;;;;;18.97;13.23;;;20.00;35.40;;;;;;5070898;28;20900;-75
2022/03/26 10:02:11;;;;;;;12.63;11.10;;;20.00;35.20;;;;;;5071158;28;20457;-73
2022/03/26 10:04:43;;;;;;;23.30;10.63;;;20.00;35.60;;;;;;5070748;28;20611;-76
2022/03/26 10:07:11;;;;;;;15.17;10.63;;;20.20;35.60;;;;;;5070862;28;20467;-72
2022/03/26 10:09:41;;;;;;;14.93;11.20;;;20.30;35.40;;;;;;5070827;28;20449;-74
2022/03/26 10:12:12;;;;;;;20.40;14.53;;;20.50;34.90;;;;;;5071664;28;20449;-71
2022/03/26 10:14:44;;;;;;;17.70;11.47;;;20.50;34.70;;;;;;5071457;28;20870;-70
2022/03/26 10:17:14;;;;;;;17.60;13.00;;;20.40;34.50;;;;;;5070744;28;20560;-68
2022/03/26 10:19:50;;;;;;;16.00;10.63;;;20.50;35.60;;;;;;5070877;28;20477;-69
2022/03/26 10:22:34;;;;;;;15.30;9.80;;;20.60;34.20;;;;;;5069181;28;20483;-68
2022/03/26 10:25:06;;;;;;;19.50;10.33;;;20.50;34.50;;;;;;5069246;28;20531;-68
2022/03/26 10:27:35;;;;;;;12.63;10.67;;;20.70;34.50;;;;;;5070488;28;20488;-68
2022/03/26 10:30:05;;;;;;;14.43;10.10;;;20.90;34.40;;;;;;5070470;28;21280;-68
2022/03/26 10:32:39;;;;;;;15.87;9.83;;;21.10;34.10;;;;;;5070588;28;20824;-68
2022/03/26 10:35:11;;;;;;;13.73;11.03;;;21.10;33.80;;;;;;5070410;28;20817;-72
2022/03/26 10:37:59;;;;;;;14.27;10.70;;;21.00;33.90;;;;;;5070296;28;20580;-73
2022/03/26 10:40:30;;;;;;;14.40;10.90;;;21.20;33.70;;;;;;5069952;28;20457;-72
2022/03/26 10:43:00;;;;;;;12.97;10.43;;;21.10;33.50;;;;;;5070260;28;20453;-72
2022/03/26 10:45:28;;;;;;;12.07;9.77;;;21.20;33.70;;;;;;5070240;28;20545;-74
2022/03/26 10:47:57;;;;;;;15.80;9.23;;;21.40;33.70;;;;;;5070436;28;20480;-73
2022/03/26 10:50:27;;;;;;;11.90;9.43;;;21.70;33.20;;;;;;5070551;28;20482;-68
2022/03/26 10:52:56;;;;;;;13.00;8.87;;;21.70;33.40;;;;;;5070031;28;20456;-67
2022/03/26 10:55:24;;;;;;;12.77;8.60;;;21.70;33.10;;;;;;5070263;28;20536;-68
2022/03/26 10:57:52;;;;;;;14.60;9.27;;;21.70;33.00;;;;;;5069910;28;20809;-68
2022/03/26 11:00:21;;;;;;;12.97;9.87;;;21.80;32.80;;;;;;5070268;28;20449;-70
2022/03/26 11:02:49;;;;;;;18.87;9.80;;;21.70;32.30;;;;;;5070106;28;20543;-71
2022/03/26 11:05:16;;;;;;;11.23;8.27;;;21.70;32.50;;;;;;5069667;28;20529;-71
2022/03/26 11:07:46;;;;;;;12.50;9.10;;;21.70;32.40;;;;;;5069756;28;20539;-67
2022/03/26 11:10:14;;;;;;;9.20;7.00;;;21.80;32.40;;;;;;5069773;28;20471;-70
2022/03/26 11:12:45;;;;;;;11.30;6.23;;;21.70;33.10;;;;;;5070100;28;20461;-71
2022/03/26 11:15:19;;;;;;;9.67;7.47;;;21.90;33.50;;;;;;5069976;28;20848;-71
2022/03/26 11:18:16;;;;;;;9.50;7.13;;;22.00;33.40;;;;;;5069422;28;20919;-70
2022/03/26 11:21:16;;;;;;;9.50;7.53;;;22.30;33.00;;;;;;5047829;28;20452;-68
2022/03/26 11:24:04;;;;;;;11.73;7.83;;;22.40;33.00;;;;;;5069533;28;20947;-67
2022/03/26 11:26:45;;;;;;;9.70;6.80;;;22.60;33.00;;;;;;5069339;28;20516;-69
2022/03/26 11:29:46;;;;;;;13.00;7.50;;;22.70;32.70;;;;;;5069220;28;20476;-66
2022/03/26 11:32:21;;;;;;;10.63;7.17;;;22.70;32.40;;;;;;5064279;28;20953;-66
2022/03/26 11:34:57;;;;;;;10.77;7.60;;;22.60;33.10;;;;;;5069434;28;20448;-68
2022/03/26 11:37:25;;;;;;;11.77;6.50;;;22.80;32.70;;;;;;5069356;28;20468;-67
2022/03/26 11:39:56;;;;;;;12.00;7.87;;;23.10;32.70;;;;;;5069384;28;20941;-67
2022/03/26 11:42:36;;;;;;;10.33;6.80;;;23.40;32.50;;;;;;5069492;28;20488;-67
2022/03/26 11:51:14;;;;;;;9.67;6.50;;;23.40;30.60;;;;;;5069446;28;20479;-68
2022/03/26 11:53:44;;;;;;;10.07;6.50;;;23.10;29.40;;;;;;5069151;28;20456;-67
2022/03/26 11:56:22;;;;;;;7.30;5.40;;;23.10;29.60;;;;;;5069361;28;20826;-67
2022/03/26 11:59:05;;;;;;;10.70;5.63;;;23.10;28.90;;;;;;5069303;28;20464;-67
2022/03/26 12:01:36;;;;;;;8.30;6.03;;;23.00;29.40;;;;;;5068902;28;20552;-67
2022/03/26 12:04:10;;;;;;;10.27;6.97;;;23.00;29.30;;;;;;5069268;28;20472;-66
2022/03/26 12:06:47;;;;;;;10.90;6.13;;;23.10;29.40;;;;;;5069254;28;20520;-66
2022/03/26 12:09:30;;;;;;;7.67;5.23;;;23.20;28.80;;;;;;5069625;28;20896;-67
2022/03/26 12:12:23;;;;;;;8.60;5.37;;;23.30;28.20;;;;;;5073230;28;20453;-67
2022/03/26 12:15:37;;;;;;;10.43;5.40;;;23.30;27.90;;;;;;5058063;28;20457;-66
2022/03/26 12:18:12;;;;;;;8.07;5.50;;;23.40;27.50;;;;;;5010305;28;20479;-68
2022/03/26 12:20:41;;;;;;;7.83;6.23;;;23.60;26.90;;;;;;5061410;28;20815;-67
2022/03/26 12:23:11;;;;;;;7.50;5.10;;;23.50;27.20;;;;;;5072428;28;20809;-66
2022/03/26 12:25:47;;;;;;;11.13;5.20;;;23.40;27.40;;;;;;5072187;28;21042;-67
2022/03/26 12:28:17;;;;;;;9.20;5.40;;;23.40;27.50;;;;;;5072094;28;20545;-67
2022/03/26 12:30:46;;;;;;;10.47;5.87;;;23.30;27.00;;;;;;5072757;28;20449;-67
2022/03/26 12:33:14;;;;;;;10.80;6.60;;;23.20;26.90;;;;;;5072716;28;20542;-67
2022/03/26 12:35:44;;;;;;;7.80;5.50;;;23.10;26.50;;;;;;5072949;28;20887;-68
2022/03/26 12:38:11;;;;;;;8.10;5.23;;;23.10;26.60;;;;;;5072655;28;21062;-67
2022/03/26 12:40:39;;;;;;;6.70;5.30;;;23.10;27.00;;;;;;5072312;28;20444;-68
2022/03/26 12:43:10;;;;;;;6.93;4.97;;;23.00;27.50;;;;;;5072803;28;20487;-68
2022/03/26 12:45:38;;;;;;;11.43;5.60;;;22.90;28.30;;;;;;5072640;28;20912;-67
2022/03/26 12:48:11;;;;;;;10.40;5.00;;;23.10;28.20;;;;;;5072474;28;20526;-67
2022/03/26 12:50:39;;;;;;;9.13;5.43;;;23.20;27.50;;;;;;5072623;28;20448;-68